Time;durP1;ratioP1;P1;durP2;ratioP2;P2;SDS_P1;SDS_P2;PMS_P1;PMS_P2;Temp;Humidity;BMP_temperature;BMP_pressure;BME280_temperature;BME280_humidity;BME280_pressure;Samples;Min_cycle;Max_cycle;Signal;HPM_P1;HPM_P2
2021/08/20 00:00:11;;;;;;;10.65;6.72;;;;;;;16.09;100.00;98815.52;1715087;83;20892;-65
2021/08/20 00:02:43;;;;;;;7.47;6.30;;;;;;;16.05;100.00;98815.59;1715173;83;20999;-65
2021/08/20 00:05:13;;;;;;;10.82;6.42;;;;;;;16.01;100.00;98817.07;1714174;83;20955;-65
2021/08/20 00:07:43;;;;;;;8.20;6.55;;;;;;;16.01;100.00;98817.07;1701421;83;21549;-64
2021/08/20 00:10:12;;;;;;;10.48;6.33;;;;;;;15.98;100.00;98820.70;1700094;83;21157;-66
2021/08/20 00:12:42;;;;;;;8.35;6.10;;;;;;;15.99;100.00;98821.58;1706384;83;21000;-66
2021/08/20 00:15:11;;;;;;;8.50;5.78;;;;;;;16.02;100.00;98820.14;1698179;83;20990;-66
2021/08/20 00:17:40;;;;;;;8.40;6.00;;;;;;;16.01;100.00;98819.73;1698272;83;21006;-62
2021/08/20 00:20:10;;;;;;;7.00;5.67;;;;;;;16.01;100.00;98819.73;1699262;83;21434;-66
2021/08/20 00:22:40;;;;;;;8.83;5.70;;;;;;;16.03;100.00;98823.21;1698237;83;21528;-65
2021/08/20 00:25:11;;;;;;;8.73;5.95;;;;;;;16.06;100.00;98829.30;1708520;83;20986;-66
2021/08/20 00:27:41;;;;;;;8.65;5.40;;;;;;;16.13;100.00;98828.67;1714236;83;21003;-66
2021/08/20 00:30:11;;;;;;;6.70;5.33;;;;;;;16.13;100.00;98828.67;1661072;84;21439;-65
2021/08/20 00:32:40;;;;;;;7.67;5.42;;;;;;;16.19;100.00;98836.44;1664374;86;21539;-65
2021/08/20 00:35:11;;;;;;;8.53;5.70;;;;;;;16.24;100.00;98829.63;1668012;85;21482;-66
2021/08/20 00:37:40;;;;;;;7.55;5.72;;;;;;;16.24;100.00;98829.63;1668143;85;21000;-66
2021/08/20 00:40:11;;;;;;;10.35;5.78;;;;;;;16.27;100.00;98822.88;1698384;84;21471;-65
2021/08/20 00:42:40;;;;;;;7.70;5.08;;;;;;;16.31;100.00;98825.84;1695647;83;20897;-65
2021/08/20 00:45:09;;;;;;;7.03;5.25;;;;;;;16.31;100.00;98825.84;1698944;84;20955;-65
2021/08/20 00:47:38;;;;;;;9.05;5.55;;;;;;;16.35;100.00;98819.48;1671630;85;21156;-66
2021/08/20 00:50:08;;;;;;;8.90;5.65;;;;;;;16.38;100.00;98820.25;1676196;84;21550;-65
2021/08/20 00:52:37;;;;;;;7.58;5.50;;;;;;;16.40;100.00;98823.31;1699114;84;20960;-65
2021/08/20 00:55:10;;;;;;;9.30;5.50;;;;;;;16.41;100.00;98819.27;1699724;84;21411;-65
2021/08/20 00:57:44;;;;;;;9.30;5.30;;;;;;;16.43;100.00;98821.88;1699439;84;21026;-66
2021/08/20 01:00:13;;;;;;;8.15;5.03;;;;;;;16.42;100.00;98819.68;1699617;83;21180;-65
2021/08/20 01:02:45;;;;;;;6.90;4.95;;;;;;;16.43;100.00;98814.77;1697894;84;20911;-66
2021/08/20 01:05:14;;;;;;;7.80;5.33;;;;;;;16.46;100.00;98821.77;1658005;85;21059;-65
2021/08/20 01:07:44;;;;;;;7.50;5.80;;;;;;;16.46;100.00;98809.79;1670113;86;21522;-66
2021/08/20 01:10:16;;;;;;;7.90;5.67;;;;;;;16.46;100.00;98812.45;1665248;84;21467;-66
2021/08/20 01:12:48;;;;;;;9.23;6.00;;;;;;;16.45;100.00;98814.70;1692986;84;21426;-66
2021/08/20 01:15:16;;;;;;;5.92;5.05;;;;;;;16.45;100.00;98818.70;1699716;84;20923;-67
2021/08/20 01:17:47;;;;;;;8.60;5.15;;;;;;;16.43;100.00;98816.09;1698620;83;20977;-65
2021/08/20 01:20:18;;;;;;;7.62;5.53;;;;;;;16.44;100.00;98815.17;1693630;84;21434;-66
2021/08/20 01:22:47;;;;;;;6.28;5.42;;;;;;;16.44;100.00;98815.17;1699419;84;21011;-65
2021/08/20 01:25:17;;;;;;;9.25;5.90;;;;;;;16.44;100.00;98808.52;1669709;84;21141;-66
2021/08/20 01:27:47;;;;;;;7.05;5.33;;;;;;;16.42;100.00;98805.04;1699504;84;21443;-66
2021/08/20 01:30:16;;;;;;;7.45;5.05;;;;;;;16.41;100.00;98812.62;1670654;84;20903;-66
2021/08/20 01:32:46;;;;;;;8.00;5.60;;;;;;;16.38;100.00;98812.27;1678332;84;21442;-65
2021/08/20 01:35:14;;;;;;;8.65;5.45;;;;;;;16.38;100.00;98812.27;1690541;83;21003;-65
2021/08/20 01:37:44;;;;;;;7.70;5.30;;;;;;;16.38;100.00;98810.93;1692291;84;22009;-65
2021/08/20 01:40:13;;;;;;;7.87;5.50;;;;;;;16.41;100.00;98811.28;1692410;83;21505;-65
2021/08/20 01:42:43;;;;;;;10.72;6.17;;;;;;;16.41;100.00;98809.09;1665829;83;20998;-65
2021/08/20 01:45:12;;;;;;;9.83;5.87;;;;;;;16.38;100.00;98808.27;1691598;83;21054;-66
2021/08/20 01:47:41;;;;;;;11.05;6.05;;;;;;;16.36;100.00;98810.12;1643235;86;21612;-66
2021/08/20 01:50:12;;;;;;;10.10;5.92;;;;;;;16.35;100.00;98809.70;1670356;86;21447;-66
2021/08/20 01:52:44;;;;;;;8.03;5.60;;;;;;;16.31;100.00;98809.87;1683226;83;21457;-65
2021/08/20 01:55:13;;;;;;;9.15;6.28;;;;;;;16.31;100.00;98809.87;1691751;83;21039;-65
2021/08/20 01:57:44;;;;;;;11.28;6.12;;;;;;;16.32;100.00;98815.14;1692651;83;21441;-66
2021/08/20 02:00:16;;;;;;;;;;;;;;;16.33;100.00;98817.34;1672679;83;21425;-65
2021/08/20 02:02:44;;;;;;;12.03;6.20;;;;;;;16.31;100.00;98815.19;1692614;84;21168;-64
2021/08/20 02:05:15;;;;;;;9.43;5.55;;;;;;;16.29;100.00;98817.91;1692776;84;21518;-66
2021/08/20 02:07:44;;;;;;;9.90;6.67;;;;;;;16.28;100.00;98817.95;1692281;84;21450;-66
2021/08/20 02:10:15;;;;;;;8.60;5.87;;;;;;;16.24;100.00;98819.86;1692706;84;21477;-66
2021/08/20 02:12:43;;;;;;;8.25;5.70;;;;;;;16.24;100.00;98819.86;1644377;83;20994;-66
2021/08/20 02:15:13;;;;;;;8.30;5.92;;;;;;;16.27;100.00;98812.23;1697675;83;21217;-65
2021/08/20 02:17:41;;;;;;;8.95;6.12;;;;;;;16.28;100.00;98815.30;1691406;83;20890;-65
2021/08/20 02:20:10;;;;;;;6.97;5.67;;;;;;;16.28;100.00;98817.95;1665839;84;20987;-65
2021/08/20 02:22:39;;;;;;;8.73;6.25;;;;;;;16.26;100.00;98824.67;1692805;83;20972;-65
2021/08/20 02:25:10;;;;;;;10.10;6.40;;;;;;;16.24;100.00;98824.31;1692306;84;21446;-65
2021/08/20 02:27:39;;;;;;;10.48;6.28;;;;;;;16.23;100.00;98826.56;1696327;83;21172;-65
2021/08/20 02:30:10;;;;;;;16.55;6.20;;;;;;;16.23;100.00;98829.22;1690656;84;20940;-64
2021/08/20 02:32:40;;;;;;;9.45;6.40;;;;;;;16.24;100.00;98828.30;1691867;83;21462;-65
2021/08/20 02:35:10;;;;;;;8.68;6.33;;;;;;;16.23;100.00;98822.57;1693191;83;20912;-66
2021/08/20 02:37:38;;;;;;;7.78;6.00;;;;;;;16.20;100.00;98833.32;1680313;84;20857;-66
2021/08/20 02:40:09;;;;;;;8.25;6.55;;;;;;;16.20;100.00;98833.32;1692603;84;21140;-66
2021/08/20 02:42:39;;;;;;;8.73;6.08;;;;;;;16.18;100.00;98839.16;1694299;83;20911;-66
2021/08/20 02:45:09;;;;;;;7.08;5.55;;;;;;;16.16;100.00;98836.55;1693949;84;21014;-66
2021/08/20 02:47:37;;;;;;;8.53;5.95;;;;;;;16.17;100.00;98835.63;1693671;84;21027;-66
2021/08/20 02:50:07;;;;;;;9.13;6.20;;;;;;;16.15;100.00;98840.13;1666519;84;21141;-66
2021/08/20 02:52:36;;;;;;;7.90;6.15;;;;;;;16.15;100.00;98838.80;1679814;84;21955;-66
2021/08/20 02:55:06;;;;;;;8.50;5.90;;;;;;;16.13;100.00;98835.78;1693978;84;21011;-65
2021/08/20 02:57:38;;;;;;;7.15;5.53;;;;;;;16.12;100.00;98839.36;1693467;84;20982;-65
2021/08/20 03:00:08;;;;;;;7.15;5.75;;;;;;;16.11;100.00;98839.82;1694230;84;21051;-65
2021/08/20 03:02:37;;;;;;;8.58;5.95;;;;;;;16.11;100.00;98833.63;1666225;84;21023;-64
2021/08/20 03:05:08;;;;;;;7.47;5.97;;;;;;;16.12;100.00;98839.36;1694466;84;21977;-65
2021/08/20 03:07:39;;;;;;;8.50;5.97;;;;;;;16.10;100.00;98838.55;1694137;84;21616;-66
2021/08/20 03:10:09;;;;;;;12.60;6.55;;;;;;;16.08;100.00;98837.23;1693573;84;21058;-65
2021/08/20 03:12:38;;;;;;;13.08;6.20;;;;;;;16.06;100.00;98842.60;1692383;84;21117;-66
2021/08/20 03:15:08;;;;;;;8.68;5.72;;;;;;;16.06;100.00;98848.39;1692169;83;20935;-66
2021/08/20 03:17:38;;;;;;;12.15;6.05;;;;;;;16.07;100.00;98847.47;1689959;84;21146;-66
2021/08/20 03:20:11;;;;;;;8.95;5.30;;;;;;;16.07;100.00;98847.47;1657390;84;21554;-66
2021/08/20 03:22:40;;;;;;;8.55;5.70;;;;;;;16.09;100.00;98849.65;1692958;84;21615;-60
2021/08/20 03:25:11;;;;;;;9.35;6.33;;;;;;;16.09;100.00;98851.44;1692180;83;21067;-61
2021/08/20 03:27:40;;;;;;;12.85;5.97;;;;;;;16.08;100.00;98853.20;1689288;84;21580;-60
2021/08/20 03:30:16;;;;;;;8.38;5.60;;;;;;;16.09;100.00;98857.63;1683183;84;21169;-68
2021/08/20 03:32:47;;;;;;;8.35;5.85;;;;;;;16.13;100.00;98855.73;1690041;83;21529;-67
2021/08/20 03:35:15;;;;;;;8.08;5.55;;;;;;;16.15;100.00;98861.88;1693152;84;20955;-66
2021/08/20 03:37:46;;;;;;;9.43;6.03;;;;;;;16.15;100.00;98861.41;1692040;83;21032;-67
2021/08/20 03:40:17;;;;;;;9.00;6.00;;;;;;;16.16;100.00;98856.97;1685825;83;21431;-67
2021/08/20 03:42:48;;;;;;;8.68;5.87;;;;;;;16.15;100.00;98858.75;1691163;84;21150;-68
2021/08/20 03:45:33;;;;;;;8.65;5.42;;;;;;;16.15;100.00;98861.41;1648156;87;21537;-67
2021/08/20 03:48:04;;;;;;;10.13;6.25;;;;;;;16.18;100.00;98869.30;1665473;84;21486;-67
2021/08/20 03:50:32;;;;;;;11.73;6.12;;;;;;;16.18;100.00;98870.63;1692928;83;21540;-66
2021/08/20 03:53:01;;;;;;;7.20;5.42;;;;;;;16.16;100.00;98872.47;1692560;83;21023;-67
2021/08/20 03:55:30;;;;;;;8.48;5.70;;;;;;;16.16;100.00;98873.80;1697416;84;21173;-67
2021/08/20 03:58:07;;;;;;;8.10;5.55;;;;;;;16.16;100.00;98872.93;1693623;83;20931;-66
2021/08/20 04:00:36;;;;;;;6.87;5.25;;;;;;;16.15;100.00;98877.38;1699499;83;21004;-67
2021/08/20 04:03:05;;;;;;;8.63;5.80;;;;;;;16.17;100.00;98882.66;1663827;84;21032;-68
2021/08/20 04:05:33;;;;;;;6.97;5.92;;;;;;;16.20;100.00;98887.41;1698090;83;20974;-66
2021/08/20 04:08:09;;;;;;;10.38;5.87;;;;;;;16.21;100.00;98885.63;1691864;84;21125;-67
2021/08/20 04:10:55;;;;;;;9.10;6.33;;;;;;;16.22;100.00;98887.36;1690513;84;20970;-67
2021/08/20 04:13:43;;;;;;;7.70;5.60;;;;;;;16.24;100.00;98881.07;1674608;84;21680;-67
2021/08/20 04:16:13;;;;;;;8.55;5.33;;;;;;;16.27;100.00;98888.95;1692005;84;20991;-67
2021/08/20 04:18:42;;;;;;;8.68;5.70;;;;;;;16.32;100.00;98884.34;1691436;84;21011;-67
2021/08/20 04:21:10;;;;;;;8.98;5.20;;;;;;;16.36;100.00;98887.77;1690818;84;21144;-68
2021/08/20 04:23:40;;;;;;;7.08;5.75;;;;;;;16.39;100.00;98883.67;1692700;82;21462;-67
2021/08/20 04:26:10;;;;;;;6.35;5.08;;;;;;;16.43;100.00;98887.11;1674419;84;21071;-68
2021/08/20 04:28:41;;;;;;;9.03;5.10;;;;;;;16.46;100.00;98894.52;1695985;83;20950;-67
2021/08/20 04:31:26;;;;;;;6.12;5.12;;;;;;;16.51;100.00;98895.23;1629202;87;20953;-66
2021/08/20 04:34:13;;;;;;;6.30;5.17;;;;;;;16.60;100.00;98899.41;1632059;87;21768;-67
2021/08/20 04:37:02;;;;;;;8.05;5.20;;;;;;;16.66;100.00;98901.89;1590949;88;20983;-67
2021/08/20 04:39:50;;;;;;;5.87;5.00;;;;;;;16.71;100.00;98902.60;1550133;90;21593;-66
2021/08/20 04:42:23;;;;;;;7.70;5.17;;;;;;;16.74;100.00;98901.16;1621050;84;21043;-66
2021/08/20 04:44:53;;;;;;;6.40;4.55;;;;;;;16.79;100.00;98901.88;1666122;84;21612;-67
2021/08/20 04:47:29;;;;;;;6.65;4.67;;;;;;;16.86;100.00;98903.39;1693453;83;21418;-66
2021/08/20 04:50:08;;;;;;;8.53;4.92;;;;;;;16.93;100.00;98900.92;1650815;86;20980;-67
2021/08/20 04:52:39;;;;;;;6.67;5.10;;;;;;;17.00;100.00;98901.56;1684462;82;20876;-67
2021/08/20 04:55:28;;;;;;;5.72;4.70;;;;;;;17.05;100.00;98892.98;1621344;87;21572;-67
2021/08/20 04:57:56;;;;;;;7.40;5.28;;;;;;;17.10;100.00;98895.02;1608589;87;21428;-67
2021/08/20 05:00:24;;;;;;;6.83;4.50;;;;;;;17.17;100.00;98903.65;1639065;84;21174;-67
2021/08/20 05:02:53;;;;;;;6.65;4.70;;;;;;;17.21;100.00;98895.48;1693030;83;20840;-67
2021/08/20 05:05:21;;;;;;;6.62;4.85;;;;;;;17.28;100.00;98904.13;1690282;83;20955;-66
2021/08/20 05:07:50;;;;;;;5.08;4.58;;;;;;;17.37;100.00;98907.78;1685192;83;21620;-66
2021/08/20 05:10:19;;;;;;;8.73;4.37;;;;;;;17.44;100.00;98903.08;1705192;83;21989;-67
2021/08/20 05:12:48;;;;;;;4.95;4.20;;;;;;;17.50;100.00;98902.42;1696478;83;21782;-66
2021/08/20 05:15:18;;;;;;;6.10;4.60;;;;;;;17.59;100.00;98903.40;1668737;84;20940;-69
2021/08/20 05:17:47;;;;;;;5.78;4.35;;;;;;;17.67;100.00;98899.13;1693943;83;21415;-70
2021/08/20 05:20:15;;;;;;;5.55;4.58;;;;;;;17.73;100.00;98901.56;1692923;83;21514;-69
2021/08/20 05:22:47;;;;;;;6.15;4.12;;;;;;;17.77;100.00;98905.84;1693121;83;20899;-69
2021/08/20 05:25:16;;;;;;;7.55;4.50;;;;;;;17.84;100.00;98904.68;1692689;83;20891;-69
2021/08/20 05:27:44;;;;;;;5.00;3.83;;;;;;;17.92;100.00;98907.91;1690710;84;21518;-69
2021/08/20 05:30:12;;;;;;;5.47;4.47;;;;;;;17.98;100.00;98905.96;1679587;84;21602;-69
2021/08/20 05:32:40;;;;;;;7.12;4.50;;;;;;;18.01;100.00;98907.17;1664499;86;21004;-68
2021/08/20 05:35:10;;;;;;;5.53;3.80;;;;;;;18.01;100.00;98904.03;1664626;86;20881;-69
2021/08/20 05:37:37;;;;;;;6.30;4.30;;;;;;;18.03;100.00;98910.19;1681659;84;21208;-69
2021/08/20 05:40:07;;;;;;;5.62;4.55;;;;;;;18.06;100.00;98908.73;1704671;84;20902;-69
2021/08/20 05:42:34;;;;;;;5.53;3.98;;;;;;;18.09;100.00;98911.73;1680165;84;21045;-69
2021/08/20 05:45:04;;;;;;;5.03;3.72;;;;;;;18.13;100.00;98912.88;1700118;84;20907;-68
2021/08/20 05:47:32;;;;;;;7.25;4.33;;;;;;;18.23;100.00;98916.05;1677167;84;20916;-65
2021/08/20 05:50:00;;;;;;;6.08;4.20;;;;;;;18.31;100.00;98918.41;1703474;84;21418;-69
2021/08/20 05:52:27;;;;;;;6.75;4.37;;;;;;;18.39;100.00;98913.61;1704893;84;20994;-70
2021/08/20 05:54:55;;;;;;;5.47;4.08;;;;;;;18.47;100.00;98914.20;1701279;83;20942;-69
2021/08/20 05:57:23;;;;;;;4.80;3.90;;;;;;;18.53;100.00;98908.59;1700954;83;20978;-70
2021/08/20 05:59:51;;;;;;;4.87;4.05;;;;;;;18.60;100.00;98907.41;1702417;83;21006;-69
2021/08/20 06:02:23;;;;;;;6.85;4.12;;;;;;;18.67;100.00;98909.38;1702367;84;21145;-69
2021/08/20 06:04:50;;;;;;;7.65;3.72;;;;;;;18.76;100.00;98906.31;1704017;84;20927;-69
2021/08/20 06:07:20;;;;;;;4.17;3.58;;;;;;;18.87;100.00;98906.24;1704951;84;20995;-70
2021/08/20 06:09:49;;;;;;;4.85;3.67;;;;;;;18.99;100.00;98916.90;1701797;83;20967;-70
2021/08/20 06:12:17;;;;;;;5.47;3.75;;;;;;;19.11;100.00;98913.68;1703347;84;21026;-70
2021/08/20 06:14:46;;;;;;;4.42;3.55;;;;;;;19.24;100.00;98918.02;1704909;84;20907;-67
2021/08/20 06:17:13;;;;;;;4.65;3.55;;;;;;;19.34;100.00;98916.66;1703970;83;21489;-67
2021/08/20 06:19:42;;;;;;;4.70;3.33;;;;;;;19.44;100.00;98918.01;1702614;83;20919;-67
2021/08/20 06:22:11;;;;;;;4.58;3.22;;;;;;;19.55;100.00;98914.00;1701842;84;20994;-67
2021/08/20 06:24:39;;;;;;;4.47;3.33;;;;;;;19.68;100.00;98916.50;1703144;84;20903;-67
2021/08/20 06:27:07;;;;;;;4.72;4.03;;;;;;;19.78;100.00;98916.47;1701047;83;21117;-67
2021/08/20 06:29:34;;;;;;;4.53;3.27;;;;;;;19.90;100.00;98920.41;1701821;83;20919;-69
2021/08/20 06:32:02;;;;;;;6.72;3.20;;;;;;;20.01;100.00;98912.25;1699730;83;20951;-67
2021/08/20 06:34:32;;;;;;;5.08;3.47;;;;;;;20.12;100.00;98912.60;1703480;83;20997;-67
2021/08/20 06:37:00;;;;;;;5.42;3.12;;;;;;;20.22;100.00;98913.02;1697974;83;21034;-67
2021/08/20 06:39:28;;;;;;;3.80;2.58;;;;;;;20.31;100.00;98913.03;1687743;84;21163;-66
2021/08/20 06:41:55;;;;;;;4.58;3.00;;;;;;;20.39;100.00;98905.52;1688031;84;20844;-67
2021/08/20 06:44:22;;;;;;;4.45;2.62;;;;;;;20.50;100.00;98913.92;1687630;83;20935;-66
2021/08/20 06:46:50;;;;;;;3.92;2.70;;;;;;;20.58;100.00;98909.04;1687882;84;21002;-67
2021/08/20 06:49:17;;;;;;;2.62;2.17;;;;;;;20.68;100.00;98908.09;1690817;84;20896;-67
2021/08/20 06:51:45;;;;;;;2.90;2.60;;;;;;;20.78;100.00;98906.68;1694162;84;21485;-69
2021/08/20 06:54:12;;;;;;;5.78;2.33;;;;;;;20.89;100.00;98904.82;1689384;84;20951;-67
2021/08/20 06:56:39;;;;;;;6.62;3.00;;;;;;;20.98;100.00;98908.36;1665017;86;21467;-69
2021/08/20 06:59:08;;;;;;;4.58;2.50;;;;;;;21.04;100.00;98902.20;1677670;84;20903;-68
2021/08/20 07:01:36;;;;;;;3.20;2.60;;;;;;;21.12;100.00;98904.48;1694746;84;21549;-67
2021/08/20 07:04:05;;;;;;;3.02;2.67;;;;;;;21.21;100.00;98907.14;1694529;84;21827;-64
2021/08/20 07:06:34;;;;;;;7.90;2.50;;;;;;;21.31;100.00;98901.75;1694557;84;21581;-67
2021/08/20 07:09:02;;;;;;;4.35;2.33;;;;;;;21.41;100.00;98894.06;1694412;84;21062;-65
2021/08/20 07:11:31;;;;;;;3.15;2.27;;;;;;;21.47;100.00;98895.94;1704467;83;21007;-65
2021/08/20 07:14:00;;;;;;;2.30;2.10;;;;;;;21.55;100.00;98895.05;1691487;83;21030;-66
2021/08/20 07:16:29;;;;;;;3.22;2.40;;;;;;;21.64;100.00;98896.36;1688089;84;21132;-63
2021/08/20 07:18:56;;;;;;;3.30;2.05;;;;;;;21.72;100.00;98892.77;1693452;83;20920;-67
2021/08/20 07:21:24;;;;;;;5.17;2.40;;;;;;;21.81;100.00;98895.45;1693515;83;21557;-64
2021/08/20 07:23:55;;;;;;;5.00;2.17;;;;;;;21.88;100.00;98891.47;1693172;83;20962;-65
2021/08/20 07:26:22;;;;;;;2.33;2.08;;;;;;;21.92;100.00;98884.50;1693923;84;20951;-64
2021/08/20 07:28:50;;;;;;;3.72;2.20;;;;;;;21.98;100.00;98885.97;1692690;83;21081;-64
2021/08/20 07:31:20;;;;;;;2.58;2.12;;;;;;;22.05;100.00;98888.73;1692791;84;21410;-63
2021/08/20 07:33:49;;;;;;;3.05;2.22;;;;;;;22.12;100.00;98890.11;1694010;84;21410;-63
2021/08/20 07:36:16;;;;;;;2.72;2.25;;;;;;;22.21;100.00;98890.92;1634089;86;20928;-63
2021/08/20 07:38:45;;;;;;;6.78;2.47;;;;;;;22.30;100.00;98891.77;1657108;85;20880;-65
2021/08/20 07:41:14;;;;;;;7.53;2.40;;;;;;;22.40;100.00;98889.89;1689906;84;21579;-64
2021/08/20 07:43:42;;;;;;;4.42;2.70;;;;;;;22.48;100.00;98886.27;1694498;84;20908;-63
2021/08/20 07:46:10;;;;;;;2.45;2.25;;;;;;;22.56;100.00;98886.69;1689881;84;20975;-63
2021/08/20 07:48:38;;;;;;;3.58;2.42;;;;;;;22.64;100.00;98885.75;1688043;84;21554;-63
2021/08/20 07:51:08;;;;;;;6.10;3.45;;;;;;;22.73;100.00;98887.05;1692581;83;21139;-62
2021/08/20 07:53:36;;;;;;;2.80;2.40;;;;;;;22.82;100.00;98886.53;1685394;84;21881;-63
2021/08/20 07:56:04;;;;;;;3.20;2.37;;;;;;;22.92;100.00;98885.89;1690092;84;21077;-63
2021/08/20 07:58:32;;;;;;;2.62;1.85;;;;;;;23.04;100.00;98882.92;1695736;83;21018;-65
2021/08/20 08:01:00;;;;;;;6.03;2.22;;;;;;;23.17;100.00;98891.11;1694770;84;21036;-67
2021/08/20 08:03:29;;;;;;;3.25;1.90;;;;;;;23.29;100.00;98891.73;1692993;84;20862;-63
2021/08/20 08:05:57;;;;;;;7.05;2.55;;;;;;;23.43;100.00;98885.48;1692395;84;21128;-62
2021/08/20 08:08:25;;;;;;;2.67;2.05;;;;;;;23.57;100.00;98884.64;1692285;83;20916;-65
2021/08/20 08:10:56;;;;;;;2.52;1.70;;;;;;;23.66;100.00;98889.00;1692344;83;20974;-61
2021/08/20 08:13:24;;;;;;;3.92;2.70;;;;;;;23.76;100.00;98874.46;1692733;83;20991;-61
2021/08/20 08:15:52;;;;;;;2.87;2.15;;;;;;;23.86;100.00;98872.91;1695582;83;21142;-61
2021/08/20 08:18:22;;;;;;;4.70;2.40;;;;;;;23.95;100.00;98877.70;1692761;84;21216;-62
2021/08/20 08:20:50;;;;;;;4.15;2.98;;;;;;;24.06;100.00;98877.86;1692063;84;21552;-62
2021/08/20 08:23:19;;;;;;;4.50;2.65;;;;;;;24.18;100.00;98873.52;1692157;84;20920;-65
2021/08/20 08:25:47;;;;;;;3.92;2.70;;;;;;;24.28;100.00;98872.46;1692024;83;21471;-63
2021/08/20 08:28:15;;;;;;;3.72;1.98;;;;;;;24.36;100.00;98869.64;1692072;84;20947;-62
2021/08/20 08:30:43;;;;;;;6.28;5.67;;;;;;;24.45;100.00;98873.06;1691981;84;21521;-66
2021/08/20 08:33:11;;;;;;;8.18;3.92;;;;;;;24.54;100.00;98869.36;1673012;84;21046;-66
2021/08/20 08:35:40;;;;;;;4.03;2.50;;;;;;;24.62;100.00;98869.26;1692957;84;21470;-66
2021/08/20 08:38:13;;;;;;;3.35;2.20;;;;;;;24.69;100.00;98873.27;1693660;84;20948;-65
2021/08/20 08:40:47;;;;;;;4.55;2.33;;;;;;;24.74;100.00;98877.86;1699612;84;20932;-64
2021/08/20 08:43:15;;;;;;;7.30;4.40;;;;;;;24.80;100.00;98869.83;1699854;84;21162;-65
2021/08/20 08:45:44;;;;;;;5.33;2.92;;;;;;;24.88;100.00;98866.61;1699522;83;21533;-64
2021/08/20 08:48:18;;;;;;;3.15;2.40;;;;;;;24.99;100.00;98867.63;1686735;84;21013;-65
2021/08/20 08:50:46;;;;;;;4.67;2.27;;;;;;;25.12;100.00;98865.45;1699933;82;21025;-63
2021/08/20 08:53:14;;;;;;;13.72;10.63;;;;;;;25.21;100.00;98865.66;1700321;82;21017;-62
2021/08/20 08:55:48;;;;;;;8.08;4.10;;;;;;;25.30;100.00;98860.10;1700114;82;21828;-61
2021/08/20 08:58:16;;;;;;;3.35;2.77;;;;;;;25.41;100.00;98861.06;1700362;82;21475;-64
2021/08/20 09:00:43;;;;;;;7.03;2.70;;;;;;;25.53;100.00;98853.05;1700136;83;20914;-64
2021/08/20 09:03:26;;;;;;;2.77;1.90;;;;;;;25.65;100.00;98853.06;1699832;84;22148;-64
2021/08/20 09:05:55;;;;;;;2.17;1.75;;;;;;;25.76;100.00;98854.16;1696368;82;21462;-63
2021/08/20 09:08:24;;;;;;;1.67;1.57;;;;;;;25.79;100.00;98856.63;1700295;82;21082;-64
2021/08/20 09:10:59;;;;;;;1.87;1.70;;;;;;;25.83;100.00;98852.73;1699956;82;21401;-63
2021/08/20 09:13:30;;;;;;;17.60;14.70;;;;;;;25.90;100.00;98859.41;1700383;82;21406;-64
2021/08/20 09:16:13;;;;;;;6.00;5.12;;;;;;;25.99;100.00;98858.73;1699999;82;20906;-63
2021/08/20 09:18:43;;;;;;;2.80;2.30;;;;;;;26.03;100.00;98857.56;1699939;82;21006;-63
2021/08/20 09:21:18;;;;;;;5.80;2.08;;;;;;;26.06;100.00;98861.39;1700007;82;21091;-62
2021/08/20 09:23:47;;;;;;;2.15;1.60;;;;;;;26.08;100.00;98859.44;1699918;84;21080;-63
2021/08/20 09:26:18;;;;;;;2.60;1.45;;;;;;;26.14;100.00;98859.47;1700075;84;20986;-62
2021/08/20 09:28:46;;;;;;;1.40;1.30;;;;;;;26.22;100.00;98860.62;1671350;84;20989;-63
2021/08/20 09:31:15;;;;;;;1.87;1.67;;;;;;;26.35;100.00;98864.65;1671404;84;20951;-63
2021/08/20 09:33:51;;;;;;;1.90;1.70;;;;;;;26.41;100.00;98871.44;1668711;86;21810;-63
2021/08/20 09:36:21;;;;;;;2.87;1.80;;;;;;;26.38;100.00;98867.13;1668691;86;20944;-62
2021/08/20 09:38:56;;;;;;;3.67;1.70;;;;;;;26.36;100.00;98866.37;1667096;86;21103;-63
2021/08/20 09:41:37;;;;;;;2.95;2.05;;;;;;;26.32;100.00;98866.20;1658911;86;20923;-64
2021/08/20 09:44:04;;;;;;;5.55;1.50;;;;;;;26.33;100.00;98871.53;1672265;84;20959;-65
2021/08/20 09:46:52;;;;;;;6.97;1.80;;;;;;;26.41;100.00;98865.54;1683304;84;21183;-63
2021/08/20 09:49:18;;;;;;;1.65;1.55;;;;;;;26.49;99.69;98860.90;1690366;83;21532;-65
2021/08/20 09:51:48;;;;;;;1.90;1.70;;;;;;;26.53;99.14;98863.78;1697188;84;20972;-63
2021/08/20 09:54:19;;;;;;;2.17;1.72;;;;;;;26.57;98.91;98859.86;1700711;83;21065;-66
2021/08/20 09:56:48;;;;;;;4.70;1.80;;;;;;;26.68;99.98;98861.75;1697917;84;21521;-67
2021/08/20 09:59:16;;;;;;;2.85;1.80;;;;;;;26.76;99.03;98865.59;1697824;84;21170;-69
2021/08/20 10:01:47;;;;;;;3.02;1.50;;;;;;;26.74;95.29;98855.38;1697856;84;20928;-70
2021/08/20 10:04:17;;;;;;;1.85;1.67;;;;;;;26.66;93.33;98857.31;1695797;84;21507;-68
2021/08/20 10:06:50;;;;;;;1.77;1.55;;;;;;;26.62;95.36;98857.17;1684765;84;20960;-68
2021/08/20 10:09:20;;;;;;;3.40;1.50;;;;;;;26.62;95.72;98856.31;1668558;86;21104;-68
2021/08/20 10:11:50;;;;;;;1.87;1.60;;;;;;;26.61;95.22;98861.35;1668690;85;21166;-68
2021/08/20 10:14:27;;;;;;;9.60;2.37;;;;;;;26.63;95.66;98857.55;1668868;86;21620;-68
2021/08/20 10:16:55;;;;;;;4.53;1.70;;;;;;;26.69;95.27;98864.33;1699283;83;20948;-66
2021/08/20 10:19:23;;;;;;;3.77;1.50;;;;;;;26.66;88.75;98861.86;1717866;83;21019;-67
2021/08/20 10:21:51;;;;;;;6.30;1.67;;;;;;;26.55;85.87;98861.81;1718177;83;20944;-67
2021/08/20 10:24:19;;;;;;;3.08;1.55;;;;;;;26.40;85.60;98853.48;1717982;83;21989;-68
2021/08/20 10:26:51;;;;;;;2.95;1.65;;;;;;;26.31;89.45;98853.17;1717706;83;20935;-66
2021/08/20 10:29:30;;;;;;;6.30;1.80;;;;;;;26.30;89.49;98840.63;1717929;83;21106;-66
2021/08/20 10:32:02;;;;;;;2.05;1.40;;;;;;;26.24;86.40;98855.09;1717983;83;20912;-70
2021/08/20 10:34:39;;;;;;;1.82;1.22;;;;;;;26.20;89.20;98848.19;1718239;83;21537;-65
2021/08/20 10:37:16;;;;;;;6.35;1.60;;;;;;;26.24;90.00;98845.14;1718318;83;21139;-62
2021/08/20 10:39:48;;;;;;;1.77;1.30;;;;;;;26.38;92.96;98849.55;1706633;83;21616;-66
2021/08/20 10:42:19;;;;;;;2.10;1.20;;;;;;;26.49;90.74;98843.32;1664191;84;21042;-66
2021/08/20 10:44:51;;;;;;;5.07;1.30;;;;;;;26.68;89.06;98842.31;1689054;84;21504;-66
2021/08/20 10:47:28;;;;;;;1.87;1.20;;;;;;;26.68;89.06;98842.31;1695200;83;21409;-68
2021/08/20 10:50:10;;;;;;;1.10;0.98;;;;;;;26.80;85.99;98841.86;1690583;83;21187;-63
2021/08/20 10:52:46;;;;;;;2.00;1.25;;;;;;;26.94;81.91;98852.47;1670773;84;21442;-68
2021/08/20 10:55:26;;;;;;;1.95;1.22;;;;;;;27.10;79.32;98840.02;1655278;85;20996;-64
2021/08/20 10:58:03;;;;;;;2.67;1.00;;;;;;;27.23;76.04;98848.89;1668228;85;21119;-60
2021/08/20 11:00:34;;;;;;;4.10;1.20;;;;;;;27.40;77.85;98852.47;1692697;84;21521;-66
2021/08/20 11:03:04;;;;;;;1.40;0.90;;;;;;;27.55;72.68;98843.64;1683207;84;21147;-65
2021/08/20 11:05:50;;;;;;;4.33;1.40;;;;;;;27.69;70.33;98843.42;1663550;84;20919;-65
